createdAt,value
2018-05-02T00:01:06.241Z,64.26
2018-05-02T00:03:39.901Z,65.00
2018-05-02T00:06:13.414Z,65.37
2018-05-02T00:08:46.980Z,65.63
2018-05-02T00:11:20.660Z,65.89
2018-05-02T00:13:54.216Z,65.72
2018-05-02T00:16:27.784Z,65.75
2018-05-02T00:19:01.469Z,66.01
2018-05-02T00:21:35.262Z,66.45
2018-05-02T00:24:08.850Z,65.92
2018-05-02T00:26:42.411Z,65.86
2018-05-02T00:29:15.940Z,66.06
2018-05-02T00:31:49.563Z,65.03
2018-05-02T00:34:23.146Z,64.94
2018-05-02T00:36:56.704Z,64.04
2018-05-02T00:39:30.270Z,64.01
2018-05-02T00:42:03.794Z,64.77
2018-05-02T00:44:37.362Z,64.48
2018-05-02T00:47:11.054Z,64.71
2018-05-02T00:49:44.711Z,64.52
2018-05-02T00:52:18.275Z,64.63
2018-05-02T00:54:51.839Z,64.62
2018-05-02T00:57:25.561Z,64.87
2018-05-02T00:59:59.259Z,65.33
2018-05-02T01:02:32.962Z,65.68
2018-05-02T01:05:06.519Z,65.80
2018-05-02T01:07:40.271Z,66.06
2018-05-02T01:10:13.861Z,66.20
2018-05-02T01:12:47.459Z,66.51
2018-05-02T01:15:21.222Z,66.44
2018-05-02T01:17:54.770Z,66.72
2018-05-02T01:20:28.323Z,66.86
2018-05-02T01:23:02.114Z,67.09
2018-05-02T01:25:35.677Z,67.36
2018-05-02T01:28:09.329Z,67.43
2018-05-02T01:30:42.968Z,67.51
2018-05-02T01:33:16.669Z,67.61
2018-05-02T01:35:50.211Z,67.57
2018-05-02T01:38:23.831Z,67.44
2018-05-02T01:40:57.831Z,67.04
2018-05-02T01:43:31.324Z,67.19
2018-05-02T01:46:04.964Z,67.25
2018-05-02T01:48:38.728Z,67.20
2018-05-02T01:51:12.385Z,67.40
2018-05-02T01:53:46.011Z,67.70
2018-05-02T01:56:19.699Z,67.92
2018-05-02T01:58:53.315Z,67.71
2018-05-02T02:01:27.066Z,67.65
2018-05-02T02:04:00.596Z,67.58
2018-05-02T02:06:34.140Z,67.58
2018-05-02T02:09:07.797Z,67.86
2018-05-02T02:11:41.499Z,67.85
2018-05-02T02:14:15.222Z,67.84
2018-05-02T02:16:48.899Z,67.98
2018-05-02T02:19:22.360Z,68.38
2018-05-02T02:21:55.986Z,68.28
2018-05-02T02:24:29.620Z,68.20
2018-05-02T02:27:03.149Z,68.31
2018-05-02T02:29:36.655Z,68.21
2018-05-02T02:32:10.473Z,68.42
2018-05-02T02:34:44.160Z,68.49
2018-05-02T02:37:17.703Z,68.58
2018-05-02T02:39:51.341Z,68.70
2018-05-02T02:42:24.935Z,68.43
2018-05-02T02:44:58.801Z,68.77
2018-05-02T02:47:32.325Z,68.70
2018-05-02T02:50:05.886Z,68.95
2018-05-02T02:52:39.617Z,69.09
2018-05-02T02:55:13.232Z,68.90
2018-05-02T02:57:46.871Z,68.72
2018-05-02T03:00:20.573Z,68.91
2018-05-02T03:02:54.056Z,69.10
2018-05-02T03:05:27.652Z,69.06
2018-05-02T03:08:01.322Z,68.97
2018-05-02T03:10:34.930Z,68.69
2018-05-02T03:13:08.505Z,68.89
2018-05-02T03:15:42.105Z,68.95
2018-05-02T03:18:15.672Z,68.90
2018-05-02T03:20:49.208Z,69.05
2018-05-02T03:23:22.827Z,69.13
2018-05-02T03:25:56.440Z,69.24
2018-05-02T03:28:30.092Z,69.09
2018-05-02T03:31:03.840Z,69.03
2018-05-02T03:33:37.363Z,69.27
2018-05-02T03:36:11.120Z,69.41
2018-05-02T03:38:44.749Z,69.84
2018-05-02T03:41:18.364Z,69.35
2018-05-02T03:43:52.008Z,69.56
2018-05-02T03:46:25.614Z,69.37
2018-05-02T03:48:59.248Z,69.46
2018-05-02T03:51:32.812Z,69.54
2018-05-02T03:54:06.321Z,69.68
2018-05-02T03:56:39.900Z,69.61
2018-05-02T03:59:13.892Z,69.75
2018-05-02T04:01:59.299Z,69.72
2018-05-02T04:04:45.625Z,69.90
2018-05-02T04:07:19.416Z,69.72
2018-05-02T04:09:53.012Z,69.63
2018-05-02T04:12:26.641Z,70.15
2018-05-02T04:15:00.280Z,69.57
2018-05-02T04:17:33.920Z,69.37
2018-05-02T04:20:07.623Z,69.55
2018-05-02T04:22:41.158Z,69.45
2018-05-02T04:25:14.835Z,69.31
2018-05-02T04:27:48.496Z,68.92
2018-05-02T04:30:22.124Z,68.90
2018-05-02T04:32:55.746Z,68.50
2018-05-02T04:35:29.637Z,68.44
2018-05-02T04:38:03.288Z,68.07
2018-05-02T04:40:36.928Z,67.74
2018-05-02T04:43:10.679Z,67.64
2018-05-02T04:45:44.356Z,67.70
2018-05-02T04:48:18.047Z,67.52
2018-05-02T04:50:51.670Z,67.19
2018-05-02T04:53:25.260Z,66.76
2018-05-02T04:55:58.836Z,66.71
2018-05-02T04:58:32.482Z,66.59
2018-05-02T05:01:06.151Z,66.51
2018-05-02T05:03:39.783Z,66.13
2018-05-02T05:06:13.636Z,66.16
2018-05-02T05:08:47.200Z,66.24
2018-05-02T05:11:20.742Z,66.20
2018-05-02T05:13:54.384Z,66.08
2018-05-02T05:16:28.509Z,65.56
2018-05-02T05:19:02.165Z,65.24
2018-05-02T05:21:35.843Z,65.17
2018-05-02T05:24:09.517Z,64.75
2018-05-02T05:26:43.080Z,64.78
2018-05-02T05:29:16.687Z,64.23
2018-05-02T05:31:50.372Z,63.72
2018-05-02T05:34:23.980Z,63.55
2018-05-02T05:36:57.651Z,63.65
2018-05-02T05:39:31.195Z,62.99
2018-05-02T05:42:05.014Z,63.04
2018-05-02T05:44:38.603Z,62.45
2018-05-02T05:47:12.257Z,61.94
2018-05-02T05:49:45.847Z,62.00
2018-05-02T05:52:19.415Z,62.00
2018-05-02T05:54:53.101Z,62.05
2018-05-02T05:57:26.659Z,62.21
2018-05-02T06:00:00.277Z,62.13
2018-05-02T06:02:33.908Z,62.08
2018-05-02T06:05:07.559Z,61.33
2018-05-02T06:07:41.225Z,60.34
2018-05-02T06:10:14.755Z,58.84
2018-05-02T06:12:48.350Z,57.06
2018-05-02T06:15:21.949Z,55.62
2018-05-02T06:17:55.470Z,52.30
2018-05-02T06:20:29.770Z,49.23
2018-05-02T06:23:03.349Z,47.06
2018-05-02T06:25:36.915Z,45.02
2018-05-02T06:28:10.489Z,45.02
2018-05-02T06:30:44.046Z,44.85
2018-05-02T06:33:17.638Z,43.65
2018-05-02T06:35:51.274Z,41.49
2018-05-02T06:38:24.981Z,39.16
2018-05-02T06:40:58.575Z,39.48
2018-05-02T06:43:32.135Z,37.64
2018-05-02T06:46:05.621Z,38.12
2018-05-02T06:48:39.408Z,35.65
2018-05-02T06:51:13.061Z,37.86
2018-05-02T06:53:46.888Z,36.26
2018-05-02T06:56:20.558Z,33.79
2018-05-02T06:58:54.221Z,35.45
2018-05-02T07:01:27.784Z,35.98
2018-05-02T07:04:01.404Z,33.40
2018-05-02T07:06:35.005Z,31.89
2018-05-02T07:09:08.669Z,33.22
2018-05-02T07:11:42.251Z,31.54
2018-05-02T07:14:15.807Z,33.49
2018-05-02T07:16:49.325Z,32.84
2018-05-02T07:19:23.049Z,30.54
2018-05-02T07:21:56.563Z,29.21
2018-05-02T07:24:30.264Z,32.64
2018-05-02T07:27:03.920Z,31.63
2018-05-02T07:29:37.676Z,31.67
2018-05-02T07:32:11.409Z,33.76
2018-05-02T07:34:45.216Z,32.41
2018-05-02T07:37:18.753Z,32.44
2018-05-02T07:39:52.355Z,29.58
2018-05-02T07:42:26.004Z,31.13
2018-05-02T07:44:59.578Z,29.62
2018-05-02T07:47:33.274Z,28.33
2018-05-02T07:50:07.132Z,30.28
2018-05-02T07:52:40.748Z,29.21
2018-05-02T07:55:14.520Z,27.26
2018-05-02T07:57:48.212Z,28.27
2018-05-02T08:00:22.256Z,28.83
2018-05-02T08:02:55.918Z,29.67
2018-05-02T08:05:29.991Z,27.52
2018-05-02T08:08:03.536Z,28.75
2018-05-02T08:10:37.127Z,30.53
2018-05-02T08:13:10.865Z,30.71
2018-05-02T08:15:44.405Z,33.92
2018-05-02T08:18:18.062Z,36.95
2018-05-02T08:20:51.644Z,32.68
2018-05-02T08:23:25.228Z,35.50
2018-05-02T08:25:58.819Z,34.84
2018-05-02T08:28:32.554Z,35.38
2018-05-02T08:31:06.144Z,33.67
2018-05-02T08:33:39.660Z,35.16
2018-05-02T08:36:13.259Z,34.67
2018-05-02T08:38:47.016Z,38.47
2018-05-02T08:41:20.725Z,36.22
2018-05-02T08:43:54.240Z,34.47
2018-05-02T08:46:28.215Z,32.59
2018-05-02T08:49:01.800Z,31.26
2018-05-02T08:51:35.552Z,33.31
2018-05-02T08:54:09.279Z,34.34
2018-05-02T08:56:42.815Z,35.29
2018-05-02T08:59:16.496Z,33.71
2018-05-02T09:01:50.696Z,30.92
2018-05-02T09:04:24.192Z,26.90
2018-05-02T09:06:57.924Z,31.62
2018-05-02T09:09:31.404Z,30.12
2018-05-02T09:12:04.960Z,29.95
2018-05-02T09:14:38.525Z,29.77
2018-05-02T09:17:12.242Z,30.26
2018-05-02T09:19:45.910Z,29.56
2018-05-02T09:22:19.530Z,28.77
2018-05-02T09:24:53.293Z,29.29
2018-05-02T09:27:27.290Z,29.17
2018-05-02T09:30:00.884Z,28.50
2018-05-02T09:32:34.793Z,31.37
2018-05-02T09:35:08.480Z,26.46
2018-05-02T09:37:42.473Z,28.04
2018-05-02T09:40:16.140Z,26.70
2018-05-02T09:42:49.944Z,22.53
2018-05-02T09:45:23.507Z,24.80
2018-05-02T09:47:57.194Z,24.97
2018-05-02T09:50:30.764Z,26.21
2018-05-02T09:53:04.334Z,23.93
2018-05-02T09:55:37.860Z,26.55
2018-05-02T09:58:11.603Z,29.18
2018-05-02T10:00:45.224Z,26.27
2018-05-02T10:03:19.056Z,30.13
2018-05-02T10:05:52.601Z,29.09
2018-05-02T10:08:26.195Z,25.68
2018-05-02T10:10:59.755Z,23.60
2018-05-02T10:13:33.384Z,19.15
2018-05-02T10:16:06.892Z,23.34
2018-05-02T10:18:40.448Z,22.41
2018-05-02T10:21:14.149Z,20.41
2018-05-02T10:23:47.749Z,24.05
2018-05-02T10:26:21.645Z,24.25
2018-05-02T10:28:55.262Z,23.76
2018-05-02T10:31:28.816Z,19.68
2018-05-02T10:34:02.607Z,23.66
2018-05-02T10:36:36.242Z,22.63
2018-05-02T10:39:09.724Z,20.94
2018-05-02T10:41:43.406Z,21.59
2018-05-02T10:44:17.300Z,22.01
2018-05-02T10:46:50.784Z,21.84
2018-05-02T10:49:24.412Z,19.37
2018-05-02T10:51:58.038Z,24.21
2018-05-02T10:54:31.656Z,23.92
2018-05-02T10:57:05.396Z,20.10
2018-05-02T10:59:38.947Z,19.65
2018-05-02T11:02:12.528Z,23.36
2018-05-02T11:04:46.251Z,21.96
2018-05-02T11:07:19.992Z,21.30
2018-05-02T11:09:53.695Z,19.76
2018-05-02T11:12:27.292Z,20.72
2018-05-02T11:15:00.978Z,20.05
2018-05-02T11:17:34.564Z,21.89
2018-05-02T11:20:08.170Z,20.27
2018-05-02T11:22:41.780Z,23.29
2018-05-02T11:25:15.418Z,24.56
2018-05-02T11:27:48.955Z,24.11
2018-05-02T11:30:22.761Z,24.06
2018-05-02T11:32:56.425Z,22.38
2018-05-02T11:35:30.575Z,25.05
2018-05-02T11:38:04.190Z,24.19
2018-05-02T11:40:37.749Z,28.25
2018-05-02T11:43:11.419Z,28.50
2018-05-02T11:45:44.995Z,33.25
2018-05-02T11:48:18.598Z,32.20
2018-05-02T11:50:52.171Z,29.29
2018-05-02T11:53:25.820Z,30.96
2018-05-02T11:55:59.400Z,29.90
2018-05-02T11:58:32.960Z,30.52
2018-05-02T12:01:06.984Z,30.23
2018-05-02T12:03:40.690Z,32.63
2018-05-02T12:06:14.286Z,30.69
2018-05-02T12:08:48.082Z,31.18
2018-05-02T12:11:21.668Z,30.31
2018-05-02T12:13:55.295Z,32.91
2018-05-02T12:16:28.935Z,30.98
2018-05-02T12:19:02.509Z,32.08
2018-05-02T12:21:36.305Z,32.45
2018-05-02T12:24:10.092Z,32.50
2018-05-02T12:26:43.710Z,32.93
2018-05-02T12:29:17.255Z,32.12
2018-05-02T12:31:50.939Z,31.97
2018-05-02T12:34:24.611Z,31.33
2018-05-02T12:36:58.303Z,30.97
2018-05-02T12:39:31.903Z,31.99
2018-05-02T12:42:05.511Z,31.80
2018-05-02T12:44:39.045Z,30.94
2018-05-02T12:47:15.944Z,31.73
2018-05-02T12:49:49.476Z,32.41
2018-05-02T12:52:23.059Z,32.83
2018-05-02T12:54:56.796Z,32.92
2018-05-02T12:57:30.390Z,30.35
2018-05-02T13:00:03.964Z,30.68
2018-05-02T13:02:37.595Z,31.12
2018-05-02T13:05:11.540Z,30.85
2018-05-02T13:07:45.652Z,32.33
2018-05-02T13:10:19.310Z,32.89
2018-05-02T13:12:52.860Z,32.31
2018-05-02T13:15:26.578Z,30.94
2018-05-02T13:18:00.334Z,31.52
2018-05-02T13:20:34.007Z,31.41
2018-05-02T13:23:07.677Z,31.53
2018-05-02T13:25:41.426Z,31.89
2018-05-02T13:28:14.960Z,31.62
2018-05-02T13:30:48.759Z,30.83
2018-05-02T13:33:22.590Z,31.36
2018-05-02T13:35:56.300Z,33.26
2018-05-02T13:38:29.938Z,31.58
2018-05-02T13:41:03.716Z,32.91
2018-05-02T13:43:37.354Z,32.28
2018-05-02T13:46:11.065Z,31.53
2018-05-02T13:48:44.695Z,31.65
2018-05-02T13:51:18.443Z,32.18
2018-05-02T13:53:52.060Z,30.84
2018-05-02T13:56:25.792Z,31.77
2018-05-02T13:58:59.311Z,32.34
2018-05-02T14:01:32.997Z,33.74
2018-05-02T14:04:06.580Z,31.88
2018-05-02T14:06:40.135Z,32.23
2018-05-02T14:09:13.683Z,33.50
2018-05-02T14:11:47.193Z,32.24
2018-05-02T14:14:20.828Z,31.13
2018-05-02T14:16:54.383Z,31.89
2018-05-02T14:19:28.299Z,33.32
2018-05-02T14:22:02.163Z,31.29
2018-05-02T14:24:35.764Z,31.16
2018-05-02T14:27:09.492Z,30.63
2018-05-02T14:29:43.248Z,30.69
2018-05-02T14:32:16.822Z,31.12
2018-05-02T14:34:50.446Z,30.85
2018-05-02T14:37:24.046Z,30.55
2018-05-02T14:39:57.718Z,30.54
2018-05-02T14:42:31.429Z,30.23
2018-05-02T14:45:04.916Z,29.26
2018-05-02T14:47:38.562Z,27.78
2018-05-02T14:50:12.222Z,29.52
2018-05-02T14:52:45.911Z,29.22
2018-05-02T14:55:19.495Z,29.31
2018-05-02T14:57:53.158Z,30.12
2018-05-02T15:00:26.808Z,29.63
2018-05-02T15:03:00.662Z,29.91
2018-05-02T15:05:34.194Z,30.56
2018-05-02T15:08:07.760Z,30.26
2018-05-02T15:10:41.411Z,31.32
2018-05-02T15:13:15.115Z,29.82
2018-05-02T15:15:48.786Z,29.81
2018-05-02T15:18:22.360Z,31.54
2018-05-02T15:20:56.111Z,29.90
2018-05-02T15:23:29.675Z,29.68
2018-05-02T15:26:03.455Z,30.04
2018-05-02T15:28:37.124Z,29.67
2018-05-02T15:31:10.944Z,30.20
2018-05-02T15:33:44.530Z,29.86
2018-05-02T15:36:18.118Z,30.54
2018-05-02T15:38:51.807Z,30.69
2018-05-02T15:41:25.347Z,30.58
2018-05-02T15:43:59.035Z,31.19
2018-05-02T15:46:32.760Z,32.06
2018-05-02T15:49:06.595Z,31.80
2018-05-02T15:51:40.182Z,31.27
2018-05-02T15:54:13.904Z,32.94
2018-05-02T15:56:47.395Z,32.39
2018-05-02T15:59:20.964Z,33.40
2018-05-02T16:01:54.514Z,32.08
2018-05-02T16:04:28.080Z,33.73
2018-05-02T16:07:01.645Z,33.58
2018-05-02T16:09:35.393Z,34.05
2018-05-02T16:12:09.303Z,35.01
2018-05-02T16:14:43.108Z,33.73
2018-05-02T16:17:17.087Z,34.63
2018-05-02T16:19:51.885Z,35.19
2018-05-02T16:22:25.482Z,35.95
2018-05-02T16:24:59.067Z,35.78
2018-05-02T16:27:32.938Z,35.88
2018-05-02T16:30:06.769Z,36.51
2018-05-02T16:32:40.400Z,36.37
2018-05-02T16:35:14.157Z,36.52
2018-05-02T16:37:48.016Z,36.73
2018-05-02T16:40:21.637Z,37.26
2018-05-02T16:42:55.262Z,37.20
2018-05-02T16:45:29.057Z,37.68
2018-05-02T16:48:02.696Z,37.77
2018-05-02T16:50:36.355Z,38.14
2018-05-02T16:53:10.137Z,37.67
2018-05-02T16:55:43.761Z,38.79
2018-05-02T16:58:17.432Z,38.61
2018-05-02T17:00:51.107Z,38.54
2018-05-02T17:03:24.759Z,38.81
2018-05-02T17:05:58.549Z,38.18
2018-05-02T17:08:32.258Z,38.71
2018-05-02T17:11:06.254Z,38.96
2018-05-02T17:13:40.052Z,39.27
2018-05-02T17:16:13.732Z,39.30
2018-05-02T17:18:47.436Z,39.94
2018-05-02T17:21:20.993Z,39.97
2018-05-02T17:23:54.777Z,40.06
2018-05-02T17:26:28.493Z,40.15
2018-05-02T17:29:02.248Z,40.20
2018-05-02T17:31:35.845Z,40.63
2018-05-02T17:34:09.659Z,40.60
2018-05-02T17:36:43.177Z,41.06
2018-05-02T17:39:17.019Z,41.54
2018-05-02T17:41:50.588Z,41.18
2018-05-02T17:44:24.292Z,41.30
2018-05-02T17:46:58.003Z,41.37
2018-05-02T17:49:31.572Z,41.83
2018-05-02T17:52:05.259Z,41.83
2018-05-02T17:54:38.966Z,41.98
2018-05-02T17:57:12.766Z,42.26
2018-05-02T17:59:46.394Z,42.51
2018-05-02T18:02:19.920Z,42.94
2018-05-02T18:04:53.516Z,42.55
2018-05-02T18:07:27.533Z,42.72
2018-05-02T18:10:01.091Z,42.86
2018-05-02T18:12:34.841Z,43.20
2018-05-02T18:15:08.421Z,43.15
2018-05-02T18:17:42.120Z,43.50
2018-05-02T18:20:15.887Z,43.54
2018-05-02T18:22:49.696Z,43.74
2018-05-02T18:25:23.418Z,43.77
2018-05-02T18:27:57.022Z,43.90
2018-05-02T18:30:30.718Z,44.33
2018-05-02T18:33:04.244Z,45.07
2018-05-02T18:35:37.807Z,44.45
2018-05-02T18:38:11.437Z,45.36
2018-05-02T18:40:45.262Z,44.71
2018-05-02T18:43:19.267Z,44.63
2018-05-02T18:45:52.833Z,45.25
2018-05-02T18:48:26.396Z,45.18
2018-05-02T18:51:00.125Z,45.37
2018-05-02T18:53:33.754Z,45.36
2018-05-02T18:56:07.482Z,45.72
2018-05-02T18:58:41.383Z,46.19
2018-05-02T19:01:15.114Z,46.63
2018-05-02T19:03:49.173Z,46.47
2018-05-02T19:06:22.857Z,46.36
2018-05-02T19:08:56.518Z,46.32
2018-05-02T19:11:30.313Z,46.81
2018-05-02T19:14:04.090Z,46.37
2018-05-02T19:16:37.734Z,47.13
2018-05-02T19:19:17.047Z,47.25
2018-05-02T19:21:50.839Z,47.02
2018-05-02T19:24:24.605Z,47.13
2018-05-02T19:26:58.716Z,47.07
2018-05-02T19:29:32.520Z,47.68
2018-05-02T19:32:12.090Z,47.68
2018-05-02T19:34:45.825Z,47.71
2018-05-02T19:37:19.463Z,47.81
2018-05-02T19:39:58.936Z,47.85
2018-05-02T19:42:38.408Z,48.31
2018-05-02T19:45:12.220Z,48.31
2018-05-02T19:47:45.966Z,48.58
2018-05-02T19:50:19.802Z,48.79
2018-05-02T19:52:53.645Z,48.86
2018-05-02T19:55:27.418Z,48.63
2018-05-02T19:58:01.061Z,49.77
2018-05-02T20:00:40.840Z,48.76
2018-05-02T20:03:14.394Z,49.14
2018-05-02T20:05:48.086Z,49.26
2018-05-02T20:08:27.399Z,48.94
2018-05-02T20:11:06.804Z,49.45
2018-05-02T20:13:46.168Z,49.39
2018-05-02T20:16:19.905Z,49.10
2018-05-02T20:18:53.642Z,48.89
2018-05-02T20:21:27.253Z,48.85
2018-05-02T20:24:01.278Z,48.95
2018-05-02T20:26:34.880Z,49.19
2018-05-02T20:29:08.646Z,49.09
2018-05-02T20:31:42.391Z,49.26
2018-05-02T20:34:16.165Z,49.56
2018-05-02T20:36:50.001Z,49.21
2018-05-02T20:39:24.012Z,49.48
2018-05-02T20:41:57.828Z,50.12
2018-05-02T20:44:31.696Z,49.71
2018-05-02T20:47:11.699Z,49.45
2018-05-02T20:49:45.415Z,49.66
2018-05-02T20:52:19.611Z,49.63
2018-05-02T20:54:53.515Z,49.98
2018-05-02T20:57:27.213Z,50.73
2018-05-02T21:00:01.023Z,50.61
2018-05-02T21:02:34.788Z,50.33
2018-05-02T21:05:08.545Z,50.83
2018-05-02T21:07:42.202Z,51.92
2018-05-02T21:10:15.893Z,52.02
2018-05-02T21:12:49.711Z,52.50
2018-05-02T21:15:23.286Z,53.45
2018-05-02T21:17:56.921Z,52.20
2018-05-02T21:20:30.538Z,52.38
2018-05-02T21:23:04.306Z,52.30
2018-05-02T21:25:39.723Z,52.14
2018-05-02T21:28:13.423Z,52.72
2018-05-02T21:30:47.262Z,53.12
2018-05-02T21:33:20.824Z,52.73
2018-05-02T21:35:54.488Z,53.06
2018-05-02T21:38:28.139Z,53.17
2018-05-02T21:41:01.891Z,53.15
2018-05-02T21:43:35.591Z,53.80
2018-05-02T21:46:09.250Z,53.78
2018-05-02T21:48:43.007Z,53.43
2018-05-02T21:51:16.778Z,53.49
2018-05-02T21:53:50.578Z,53.33
2018-05-02T21:56:24.668Z,53.13
2018-05-02T21:58:58.491Z,53.90
2018-05-02T22:01:32.313Z,53.83
2018-05-02T22:04:06.025Z,54.03
2018-05-02T22:06:39.747Z,54.11
2018-05-02T22:09:13.607Z,54.41
2018-05-02T22:11:47.276Z,54.72
2018-05-02T22:14:21.196Z,54.46
2018-05-02T22:16:55.051Z,54.66
2018-05-02T22:19:28.804Z,54.67
2018-05-02T22:22:02.637Z,54.71
2018-05-02T22:24:36.646Z,54.93
2018-05-02T22:27:10.407Z,54.79
2018-05-02T22:29:44.149Z,54.84
2018-05-02T22:32:17.774Z,54.97
2018-05-02T22:34:51.484Z,55.02
2018-05-02T22:37:29.153Z,55.24
2018-05-02T22:40:04.006Z,55.28
2018-05-02T22:42:37.838Z,55.23
2018-05-02T22:45:14.672Z,55.73
2018-05-02T22:47:49.626Z,55.36
2018-05-02T22:50:28.382Z,55.86
2018-05-02T22:53:04.222Z,56.39
2018-05-02T22:55:39.234Z,56.20
2018-05-02T22:58:13.019Z,56.16
2018-05-02T23:06:06.269Z,57.64
2018-05-02T23:08:40.342Z,57.61
2018-05-02T23:11:14.399Z,57.92
2018-05-02T23:13:48.234Z,57.86
2018-05-02T23:16:22.641Z,57.88
2018-05-02T23:19:01.557Z,57.49
2018-05-02T23:21:36.488Z,57.79
2018-05-02T23:24:10.701Z,58.02
2018-05-02T23:26:44.619Z,58.33
2018-05-02T23:29:18.580Z,58.61
2018-05-02T23:31:57.094Z,58.69
2018-05-02T23:34:30.996Z,59.10
2018-05-02T23:37:04.811Z,58.94
2018-05-02T23:39:38.799Z,58.98
2018-05-02T23:42:12.644Z,58.92
2018-05-02T23:44:46.534Z,59.24
2018-05-02T23:47:20.575Z,59.09
2018-05-02T23:49:54.213Z,59.12
2018-05-02T23:52:27.868Z,59.11
2018-05-02T23:55:01.502Z,59.28
2018-05-02T23:57:35.065Z,59.84
